sensor_id;sensor_type;location;lat;lon;timestamp;P1;durP1;ratioP1;P2;durP2;ratioP2
69260;SDS011;56378;52.404;20.816;2024-01-15T00:02:05;14.68;;;6.13;;
69260;SDS011;56378;52.404;20.816;2024-01-15T00:04:35;12.82;;;5.80;;
69260;SDS011;56378;52.404;20.816;2024-01-15T00:07:02;14.75;;;5.38;;
69260;SDS011;56378;52.404;20.816;2024-01-15T00:09:28;13.98;;;6.45;;
69260;SDS011;56378;52.404;20.816;2024-01-15T00:11:53;13.90;;;6.22;;
69260;SDS011;56378;52.404;20.816;2024-01-15T00:14:19;15.03;;;6.20;;
69260;SDS011;56378;52.404;20.816;2024-01-15T00:16:45;13.32;;;6.20;;
69260;SDS011;56378;52.404;20.816;2024-01-15T00:19:12;13.75;;;5.90;;
69260;SDS011;56378;52.404;20.816;2024-01-15T00:21:38;12.15;;;5.72;;
69260;SDS011;56378;52.404;20.816;2024-01-15T00:24:03;13.65;;;5.82;;
69260;SDS011;56378;52.404;20.816;2024-01-15T00:26:29;12.93;;;5.47;;
69260;SDS011;56378;52.404;20.816;2024-01-15T00:28:55;14.48;;;6.18;;
69260;SDS011;56378;52.404;20.816;2024-01-15T00:31:20;12.93;;;5.67;;
69260;SDS011;56378;52.404;20.816;2024-01-15T00:33:46;16.13;;;6.47;;
69260;SDS011;56378;52.404;20.816;2024-01-15T00:36:12;14.20;;;5.83;;
69260;SDS011;56378;52.404;20.816;2024-01-15T00:38:39;15.02;;;5.80;;
69260;SDS011;56378;52.404;20.816;2024-01-15T00:41:05;12.75;;;5.57;;
69260;SDS011;56378;52.404;20.816;2024-01-15T00:43:31;12.63;;;6.03;;
69260;SDS011;56378;52.404;20.816;2024-01-15T00:45:56;14.83;;;6.30;;
69260;SDS011;56378;52.404;20.816;2024-01-15T00:48:22;14.18;;;5.25;;
69260;SDS011;56378;52.404;20.816;2024-01-15T00:50:47;14.43;;;6.03;;
69260;SDS011;56378;52.404;20.816;2024-01-15T00:53:13;15.68;;;6.10;;
69260;SDS011;56378;52.404;20.816;2024-01-15T00:55:39;15.00;;;6.00;;
69260;SDS011;56378;52.404;20.816;2024-01-15T00:58:04;13.98;;;6.30;;
69260;SDS011;56378;52.404;20.816;2024-01-15T01:00:30;14.27;;;5.33;;
69260;SDS011;56378;52.404;20.816;2024-01-15T01:02:56;14.25;;;5.78;;
69260;SDS011;56378;52.404;20.816;2024-01-15T01:05:21;15.23;;;5.55;;
69260;SDS011;56378;52.404;20.816;2024-01-15T01:07:47;12.43;;;5.57;;
69260;SDS011;56378;52.404;20.816;2024-01-15T01:10:13;14.77;;;6.13;;
69260;SDS011;56378;52.404;20.816;2024-01-15T01:12:38;13.77;;;6.00;;
69260;SDS011;56378;52.404;20.816;2024-01-15T01:15:04;12.70;;;5.72;;
69260;SDS011;56378;52.404;20.816;2024-01-15T01:17:30;13.02;;;5.70;;
69260;SDS011;56378;52.404;20.816;2024-01-15T01:19:56;15.13;;;5.72;;
69260;SDS011;56378;52.404;20.816;2024-01-15T01:22:22;13.87;;;6.10;;
69260;SDS011;56378;52.404;20.816;2024-01-15T01:24:47;17.83;;;5.90;;
69260;SDS011;56378;52.404;20.816;2024-01-15T01:27:13;12.83;;;5.80;;
69260;SDS011;56378;52.404;20.816;2024-01-15T01:29:39;16.98;;;6.32;;
69260;SDS011;56378;52.404;20.816;2024-01-15T01:32:04;12.23;;;4.63;;
69260;SDS011;56378;52.404;20.816;2024-01-15T01:34:32;13.10;;;5.88;;
69260;SDS011;56378;52.404;20.816;2024-01-15T01:37:05;14.07;;;6.30;;
69260;SDS011;56378;52.404;20.816;2024-01-15T01:39:30;13.93;;;6.00;;
69260;SDS011;56378;52.404;20.816;2024-01-15T01:41:56;15.03;;;6.37;;
69260;SDS011;56378;52.404;20.816;2024-01-15T01:44:22;13.90;;;6.18;;
69260;SDS011;56378;52.404;20.816;2024-01-15T01:46:47;12.30;;;5.83;;
69260;SDS011;56378;52.404;20.816;2024-01-15T01:49:14;18.58;;;7.10;;
69260;SDS011;56378;52.404;20.816;2024-01-15T01:51:40;14.63;;;6.30;;
69260;SDS011;56378;52.404;20.816;2024-01-15T01:54:05;15.07;;;6.90;;
69260;SDS011;56378;52.404;20.816;2024-01-15T01:56:33;13.43;;;5.38;;
69260;SDS011;56378;52.404;20.816;2024-01-15T01:58:59;15.00;;;7.05;;
69260;SDS011;56378;52.404;20.816;2024-01-15T02:01:25;16.88;;;6.93;;
69260;SDS011;56378;52.404;20.816;2024-01-15T02:03:51;13.43;;;6.27;;
69260;SDS011;56378;52.404;20.816;2024-01-15T02:06:17;16.30;;;6.82;;
69260;SDS011;56378;52.404;20.816;2024-01-15T02:08:43;16.00;;;7.68;;
69260;SDS011;56378;52.404;20.816;2024-01-15T02:11:09;17.00;;;7.60;;
69260;SDS011;56378;52.404;20.816;2024-01-15T02:13:35;17.20;;;7.20;;
69260;SDS011;56378;52.404;20.816;2024-01-15T02:16:01;19.52;;;8.43;;
69260;SDS011;56378;52.404;20.816;2024-01-15T02:18:27;16.23;;;6.83;;
69260;SDS011;56378;52.404;20.816;2024-01-15T02:20:53;16.60;;;7.57;;
69260;SDS011;56378;52.404;20.816;2024-01-15T02:23:18;18.83;;;7.63;;
69260;SDS011;56378;52.404;20.816;2024-01-15T02:25:45;14.40;;;6.57;;
69260;SDS011;56378;52.404;20.816;2024-01-15T02:28:14;17.23;;;7.18;;
69260;SDS011;56378;52.404;20.816;2024-01-15T02:30:41;17.98;;;8.00;;
69260;SDS011;56378;52.404;20.816;2024-01-15T02:33:08;17.05;;;6.68;;
69260;SDS011;56378;52.404;20.816;2024-01-15T02:35:35;21.33;;;8.43;;
69260;SDS011;56378;52.404;20.816;2024-01-15T02:38:04;18.75;;;7.15;;
69260;SDS011;56378;52.404;20.816;2024-01-15T02:40:31;18.70;;;8.55;;
69260;SDS011;56378;52.404;20.816;2024-01-15T02:42:57;19.48;;;7.82;;
69260;SDS011;56378;52.404;20.816;2024-01-15T02:45:22;20.88;;;8.63;;
69260;SDS011;56378;52.404;20.816;2024-01-15T02:47:48;20.17;;;10.70;;
69260;SDS011;56378;52.404;20.816;2024-01-15T02:50:14;18.13;;;9.35;;
69260;SDS011;56378;52.404;20.816;2024-01-15T02:52:43;20.92;;;9.30;;
69260;SDS011;56378;52.404;20.816;2024-01-15T02:55:09;23.30;;;10.27;;
69260;SDS011;56378;52.404;20.816;2024-01-15T02:57:35;22.93;;;9.23;;
69260;SDS011;56378;52.404;20.816;2024-01-15T03:00:00;20.13;;;8.65;;
69260;SDS011;56378;52.404;20.816;2024-01-15T03:02:26;19.88;;;8.75;;
69260;SDS011;56378;52.404;20.816;2024-01-15T03:04:52;20.08;;;9.20;;
69260;SDS011;56378;52.404;20.816;2024-01-15T03:07:18;19.73;;;8.53;;
69260;SDS011;56378;52.404;20.816;2024-01-15T03:09:44;19.40;;;8.68;;
69260;SDS011;56378;52.404;20.816;2024-01-15T03:12:09;21.53;;;8.87;;
69260;SDS011;56378;52.404;20.816;2024-01-15T03:14:36;20.60;;;9.50;;
69260;SDS011;56378;52.404;20.816;2024-01-15T03:17:02;20.17;;;9.30;;
69260;SDS011;56378;52.404;20.816;2024-01-15T03:19:27;20.42;;;9.30;;
69260;SDS011;56378;52.404;20.816;2024-01-15T03:21:53;17.20;;;8.23;;
69260;SDS011;56378;52.404;20.816;2024-01-15T03:24:20;23.05;;;9.82;;
69260;SDS011;56378;52.404;20.816;2024-01-15T03:26:45;20.58;;;9.60;;
69260;SDS011;56378;52.404;20.816;2024-01-15T03:29:11;19.70;;;9.40;;
69260;SDS011;56378;52.404;20.816;2024-01-15T03:31:37;16.33;;;7.32;;
69260;SDS011;56378;52.404;20.816;2024-01-15T03:34:02;14.52;;;6.20;;
69260;SDS011;56378;52.404;20.816;2024-01-15T03:36:28;18.10;;;8.67;;
69260;SDS011;56378;52.404;20.816;2024-01-15T03:38:54;22.77;;;8.85;;
69260;SDS011;56378;52.404;20.816;2024-01-15T03:41:19;17.20;;;8.23;;
69260;SDS011;56378;52.404;20.816;2024-01-15T03:43:45;22.23;;;9.18;;
69260;SDS011;56378;52.404;20.816;2024-01-15T03:46:11;16.50;;;6.80;;
69260;SDS011;56378;52.404;20.816;2024-01-15T03:48:37;17.88;;;8.43;;
69260;SDS011;56378;52.404;20.816;2024-01-15T03:51:03;20.20;;;8.45;;
69260;SDS011;56378;52.404;20.816;2024-01-15T03:53:29;17.63;;;7.50;;
69260;SDS011;56378;52.404;20.816;2024-01-15T03:55:55;17.08;;;7.03;;
69260;SDS011;56378;52.404;20.816;2024-01-15T03:58:20;18.50;;;8.80;;
69260;SDS011;56378;52.404;20.816;2024-01-15T04:00:46;22.45;;;10.00;;
69260;SDS011;56378;52.404;20.816;2024-01-15T04:03:12;17.07;;;6.97;;
69260;SDS011;56378;52.404;20.816;2024-01-15T04:05:37;20.13;;;8.65;;
69260;SDS011;56378;52.404;20.816;2024-01-15T04:08:03;21.63;;;9.27;;
69260;SDS011;56378;52.404;20.816;2024-01-15T04:10:29;21.35;;;9.18;;
69260;SDS011;56378;52.404;20.816;2024-01-15T04:12:55;23.33;;;8.85;;
69260;SDS011;56378;52.404;20.816;2024-01-15T04:15:21;20.43;;;8.80;;
69260;SDS011;56378;52.404;20.816;2024-01-15T04:17:46;21.73;;;9.23;;
69260;SDS011;56378;52.404;20.816;2024-01-15T04:20:12;23.20;;;9.02;;
69260;SDS011;56378;52.404;20.816;2024-01-15T04:22:38;17.17;;;7.17;;
69260;SDS011;56378;52.404;20.816;2024-01-15T04:25:04;20.48;;;9.25;;
69260;SDS011;56378;52.404;20.816;2024-01-15T04:27:30;21.15;;;8.95;;
69260;SDS011;56378;52.404;20.816;2024-01-15T04:29:55;22.13;;;7.97;;
69260;SDS011;56378;52.404;20.816;2024-01-15T04:32:21;23.10;;;9.17;;
69260;SDS011;56378;52.404;20.816;2024-01-15T04:34:47;19.05;;;8.98;;
69260;SDS011;56378;52.404;20.816;2024-01-15T04:37:15;19.33;;;8.07;;
69260;SDS011;56378;52.404;20.816;2024-01-15T04:39:41;22.83;;;8.38;;
69260;SDS011;56378;52.404;20.816;2024-01-15T04:42:07;21.92;;;8.75;;
69260;SDS011;56378;52.404;20.816;2024-01-15T04:44:33;20.77;;;8.23;;
69260;SDS011;56378;52.404;20.816;2024-01-15T04:46:58;23.45;;;10.30;;
69260;SDS011;56378;52.404;20.816;2024-01-15T04:49:24;17.67;;;8.25;;
69260;SDS011;56378;52.404;20.816;2024-01-15T04:51:52;21.52;;;8.95;;
69260;SDS011;56378;52.404;20.816;2024-01-15T04:54:18;16.90;;;7.83;;
69260;SDS011;56378;52.404;20.816;2024-01-15T04:56:44;18.42;;;7.13;;
69260;SDS011;56378;52.404;20.816;2024-01-15T04:59:10;20.63;;;8.35;;
69260;SDS011;56378;52.404;20.816;2024-01-15T05:01:36;22.10;;;8.43;;
69260;SDS011;56378;52.404;20.816;2024-01-15T05:04:02;25.15;;;9.93;;
69260;SDS011;56378;52.404;20.816;2024-01-15T05:06:28;24.17;;;9.75;;
69260;SDS011;56378;52.404;20.816;2024-01-15T05:08:53;16.53;;;7.83;;
69260;SDS011;56378;52.404;20.816;2024-01-15T05:11:19;16.33;;;6.82;;
69260;SDS011;56378;52.404;20.816;2024-01-15T05:13:45;15.18;;;7.10;;
69260;SDS011;56378;52.404;20.816;2024-01-15T05:16:11;19.57;;;8.27;;
69260;SDS011;56378;52.404;20.816;2024-01-15T05:18:37;23.58;;;9.52;;
69260;SDS011;56378;52.404;20.816;2024-01-15T05:21:03;19.30;;;8.23;;
69260;SDS011;56378;52.404;20.816;2024-01-15T05:23:30;17.92;;;7.45;;
69260;SDS011;56378;52.404;20.816;2024-01-15T05:25:56;18.13;;;7.68;;
69260;SDS011;56378;52.404;20.816;2024-01-15T05:28:22;24.43;;;10.23;;
69260;SDS011;56378;52.404;20.816;2024-01-15T05:30:48;21.67;;;8.90;;
69260;SDS011;56378;52.404;20.816;2024-01-15T05:33:15;18.63;;;7.85;;
69260;SDS011;56378;52.404;20.816;2024-01-15T05:35:41;18.80;;;8.20;;
69260;SDS011;56378;52.404;20.816;2024-01-15T05:38:07;20.65;;;8.27;;
69260;SDS011;56378;52.404;20.816;2024-01-15T05:40:33;22.23;;;8.70;;
69260;SDS011;56378;52.404;20.816;2024-01-15T05:42:59;19.30;;;8.55;;
69260;SDS011;56378;52.404;20.816;2024-01-15T05:45:26;26.63;;;10.00;;
69260;SDS011;56378;52.404;20.816;2024-01-15T05:47:52;24.83;;;9.70;;
69260;SDS011;56378;52.404;20.816;2024-01-15T05:50:17;22.80;;;9.47;;
69260;SDS011;56378;52.404;20.816;2024-01-15T05:52:43;18.15;;;8.32;;
69260;SDS011;56378;52.404;20.816;2024-01-15T05:55:09;18.63;;;7.77;;
69260;SDS011;56378;52.404;20.816;2024-01-15T05:57:35;17.75;;;7.65;;
69260;SDS011;56378;52.404;20.816;2024-01-15T06:00:02;17.02;;;7.32;;
69260;SDS011;56378;52.404;20.816;2024-01-15T06:02:28;17.17;;;6.97;;
69260;SDS011;56378;52.404;20.816;2024-01-15T06:04:54;14.98;;;6.57;;
69260;SDS011;56378;52.404;20.816;2024-01-15T06:07:20;14.90;;;6.17;;
69260;SDS011;56378;52.404;20.816;2024-01-15T06:09:45;17.67;;;7.40;;
69260;SDS011;56378;52.404;20.816;2024-01-15T06:12:11;15.30;;;6.83;;
69260;SDS011;56378;52.404;20.816;2024-01-15T06:14:37;16.08;;;6.85;;
69260;SDS011;56378;52.404;20.816;2024-01-15T06:17:03;16.10;;;7.07;;
69260;SDS011;56378;52.404;20.816;2024-01-15T06:19:29;14.20;;;6.32;;
69260;SDS011;56378;52.404;20.816;2024-01-15T06:21:54;15.60;;;7.53;;
69260;SDS011;56378;52.404;20.816;2024-01-15T06:24:20;14.67;;;6.90;;
69260;SDS011;56378;52.404;20.816;2024-01-15T06:26:46;14.23;;;6.57;;
69260;SDS011;56378;52.404;20.816;2024-01-15T06:29:12;15.00;;;6.70;;
69260;SDS011;56378;52.404;20.816;2024-01-15T06:31:38;15.40;;;6.13;;
69260;SDS011;56378;52.404;20.816;2024-01-15T06:34:03;17.03;;;7.30;;
69260;SDS011;56378;52.404;20.816;2024-01-15T06:36:29;16.17;;;6.20;;
69260;SDS011;56378;52.404;20.816;2024-01-15T06:38:55;14.57;;;6.60;;
69260;SDS011;56378;52.404;20.816;2024-01-15T06:41:21;15.95;;;6.90;;
69260;SDS011;56378;52.404;20.816;2024-01-15T06:43:47;15.57;;;6.07;;
69260;SDS011;56378;52.404;20.816;2024-01-15T06:46:19;16.90;;;6.63;;
69260;SDS011;56378;52.404;20.816;2024-01-15T06:48:48;14.43;;;6.93;;
69260;SDS011;56378;52.404;20.816;2024-01-15T06:51:14;16.33;;;7.20;;
69260;SDS011;56378;52.404;20.816;2024-01-15T06:53:41;15.63;;;6.95;;
69260;SDS011;56378;52.404;20.816;2024-01-15T06:56:06;12.90;;;6.33;;
69260;SDS011;56378;52.404;20.816;2024-01-15T06:58:33;15.30;;;7.05;;
69260;SDS011;56378;52.404;20.816;2024-01-15T07:00:59;14.80;;;6.88;;
69260;SDS011;56378;52.404;20.816;2024-01-15T07:03:25;15.30;;;7.20;;
69260;SDS011;56378;52.404;20.816;2024-01-15T07:05:50;17.35;;;6.65;;
69260;SDS011;56378;52.404;20.816;2024-01-15T07:08:16;14.17;;;6.47;;
69260;SDS011;56378;52.404;20.816;2024-01-15T07:10:42;18.67;;;7.93;;
69260;SDS011;56378;52.404;20.816;2024-01-15T07:13:08;16.42;;;8.00;;
69260;SDS011;56378;52.404;20.816;2024-01-15T07:15:34;16.48;;;6.65;;
69260;SDS011;56378;52.404;20.816;2024-01-15T07:18:00;14.75;;;6.80;;
69260;SDS011;56378;52.404;20.816;2024-01-15T07:20:26;14.43;;;7.03;;
69260;SDS011;56378;52.404;20.816;2024-01-15T07:22:52;16.38;;;6.93;;
69260;SDS011;56378;52.404;20.816;2024-01-15T07:25:17;14.82;;;6.35;;
69260;SDS011;56378;52.404;20.816;2024-01-15T07:27:43;15.60;;;6.90;;
69260;SDS011;56378;52.404;20.816;2024-01-15T07:30:12;15.73;;;6.32;;
69260;SDS011;56378;52.404;20.816;2024-01-15T07:32:38;15.98;;;7.00;;
69260;SDS011;56378;52.404;20.816;2024-01-15T07:35:04;14.97;;;6.77;;
69260;SDS011;56378;52.404;20.816;2024-01-15T07:37:30;16.20;;;7.07;;
69260;SDS011;56378;52.404;20.816;2024-01-15T07:39:56;15.30;;;6.97;;
69260;SDS011;56378;52.404;20.816;2024-01-15T07:42:22;17.67;;;8.00;;
69260;SDS011;56378;52.404;20.816;2024-01-15T07:44:48;15.77;;;7.05;;
69260;SDS011;56378;52.404;20.816;2024-01-15T07:47:13;14.63;;;7.28;;
69260;SDS011;56378;52.404;20.816;2024-01-15T07:49:39;14.60;;;6.77;;
69260;SDS011;56378;52.404;20.816;2024-01-15T07:52:05;15.43;;;6.40;;
69260;SDS011;56378;52.404;20.816;2024-01-15T07:54:31;14.53;;;6.33;;
69260;SDS011;56378;52.404;20.816;2024-01-15T07:56:58;15.15;;;6.88;;
69260;SDS011;56378;52.404;20.816;2024-01-15T07:59:31;15.80;;;6.40;;
69260;SDS011;56378;52.404;20.816;2024-01-15T08:01:58;17.80;;;7.37;;
69260;SDS011;56378;52.404;20.816;2024-01-15T08:04:24;15.80;;;6.15;;
69260;SDS011;56378;52.404;20.816;2024-01-15T08:06:50;12.52;;;5.97;;
69260;SDS011;56378;52.404;20.816;2024-01-15T08:09:15;12.20;;;5.70;;
69260;SDS011;56378;52.404;20.816;2024-01-15T08:11:42;12.25;;;5.20;;
69260;SDS011;56378;52.404;20.816;2024-01-15T08:14:08;15.32;;;6.53;;
69260;SDS011;56378;52.404;20.816;2024-01-15T08:16:35;13.87;;;6.17;;
69260;SDS011;56378;52.404;20.816;2024-01-15T08:19:01;11.05;;;5.32;;
69260;SDS011;56378;52.404;20.816;2024-01-15T08:21:27;13.57;;;6.22;;
69260;SDS011;56378;52.404;20.816;2024-01-15T08:23:57;15.18;;;6.22;;
69260;SDS011;56378;52.404;20.816;2024-01-15T08:26:27;13.93;;;6.93;;
69260;SDS011;56378;52.404;20.816;2024-01-15T08:28:53;15.45;;;6.93;;
69260;SDS011;56378;52.404;20.816;2024-01-15T08:31:18;14.98;;;6.70;;
69260;SDS011;56378;52.404;20.816;2024-01-15T08:33:44;13.07;;;6.00;;
69260;SDS011;56378;52.404;20.816;2024-01-15T08:36:10;15.38;;;6.00;;
69260;SDS011;56378;52.404;20.816;2024-01-15T08:38:35;12.15;;;5.85;;
69260;SDS011;56378;52.404;20.816;2024-01-15T08:41:01;12.70;;;5.05;;
69260;SDS011;56378;52.404;20.816;2024-01-15T08:43:27;11.48;;;4.90;;
69260;SDS011;56378;52.404;20.816;2024-01-15T08:45:53;12.70;;;5.70;;
69260;SDS011;56378;52.404;20.816;2024-01-15T08:48:19;11.23;;;4.75;;
69260;SDS011;56378;52.404;20.816;2024-01-15T08:50:44;10.63;;;4.88;;
69260;SDS011;56378;52.404;20.816;2024-01-15T08:53:11;14.25;;;5.32;;
69260;SDS011;56378;52.404;20.816;2024-01-15T08:55:37;15.80;;;5.88;;
69260;SDS011;56378;52.404;20.816;2024-01-15T08:58:03;12.20;;;5.45;;
69260;SDS011;56378;52.404;20.816;2024-01-15T09:00:29;12.77;;;5.00;;
69260;SDS011;56378;52.404;20.816;2024-01-15T09:02:55;11.43;;;4.73;;
69260;SDS011;56378;52.404;20.816;2024-01-15T09:05:21;11.10;;;4.90;;
69260;SDS011;56378;52.404;20.816;2024-01-15T09:07:47;10.05;;;4.70;;
69260;SDS011;56378;52.404;20.816;2024-01-15T09:10:14;10.60;;;4.82;;
69260;SDS011;56378;52.404;20.816;2024-01-15T09:12:40;14.07;;;6.25;;
69260;SDS011;56378;52.404;20.816;2024-01-15T09:15:05;13.27;;;5.60;;
69260;SDS011;56378;52.404;20.816;2024-01-15T09:17:31;14.45;;;5.85;;
69260;SDS011;56378;52.404;20.816;2024-01-15T09:19:57;12.52;;;5.05;;
69260;SDS011;56378;52.404;20.816;2024-01-15T09:22:23;11.63;;;5.07;;
69260;SDS011;56378;52.404;20.816;2024-01-15T09:24:49;13.18;;;6.00;;
69260;SDS011;56378;52.404;20.816;2024-01-15T09:27:15;11.63;;;5.27;;
69260;SDS011;56378;52.404;20.816;2024-01-15T09:29:41;12.20;;;6.10;;
69260;SDS011;56378;52.404;20.816;2024-01-15T09:32:08;13.05;;;5.97;;
69260;SDS011;56378;52.404;20.816;2024-01-15T09:34:34;12.27;;;4.80;;
69260;SDS011;56378;52.404;20.816;2024-01-15T09:37:00;11.23;;;5.07;;
69260;SDS011;56378;52.404;20.816;2024-01-15T09:39:26;10.88;;;4.68;;
69260;SDS011;56378;52.404;20.816;2024-01-15T09:41:53;14.27;;;5.40;;
69260;SDS011;56378;52.404;20.816;2024-01-15T09:44:19;12.23;;;4.57;;
69260;SDS011;56378;52.404;20.816;2024-01-15T09:46:46;12.05;;;4.40;;
69260;SDS011;56378;52.404;20.816;2024-01-15T09:49:15;10.00;;;3.88;;
69260;SDS011;56378;52.404;20.816;2024-01-15T09:51:42;11.52;;;4.30;;
69260;SDS011;56378;52.404;20.816;2024-01-15T09:54:08;11.57;;;3.73;;
69260;SDS011;56378;52.404;20.816;2024-01-15T09:56:34;11.50;;;3.83;;
69260;SDS011;56378;52.404;20.816;2024-01-15T09:59:00;10.38;;;4.10;;
69260;SDS011;56378;52.404;20.816;2024-01-15T10:01:28;9.30;;;3.88;;
69260;SDS011;56378;52.404;20.816;2024-01-15T10:03:54;9.60;;;3.60;;
69260;SDS011;56378;52.404;20.816;2024-01-15T10:06:21;10.30;;;3.92;;
69260;SDS011;56378;52.404;20.816;2024-01-15T10:08:49;11.93;;;4.00;;
69260;SDS011;56378;52.404;20.816;2024-01-15T10:11:16;9.60;;;3.67;;
69260;SDS011;56378;52.404;20.816;2024-01-15T10:13:43;9.13;;;3.87;;
69260;SDS011;56378;52.404;20.816;2024-01-15T10:16:09;10.88;;;3.80;;
69260;SDS011;56378;52.404;20.816;2024-01-15T10:18:36;13.02;;;3.97;;
69260;SDS011;56378;52.404;20.816;2024-01-15T10:21:07;15.15;;;4.05;;
69260;SDS011;56378;52.404;20.816;2024-01-15T10:23:33;11.10;;;3.88;;
69260;SDS011;56378;52.404;20.816;2024-01-15T10:25:59;11.35;;;4.30;;
69260;SDS011;56378;52.404;20.816;2024-01-15T10:28:28;9.75;;;4.28;;
69260;SDS011;56378;52.404;20.816;2024-01-15T10:30:56;11.50;;;4.07;;
69260;SDS011;56378;52.404;20.816;2024-01-15T10:33:26;10.77;;;4.10;;
69260;SDS011;56378;52.404;20.816;2024-01-15T10:35:56;10.65;;;4.03;;
69260;SDS011;56378;52.404;20.816;2024-01-15T10:38:23;10.80;;;4.32;;
69260;SDS011;56378;52.404;20.816;2024-01-15T10:40:53;10.73;;;4.32;;
69260;SDS011;56378;52.404;20.816;2024-01-15T10:43:20;12.05;;;4.38;;
69260;SDS011;56378;52.404;20.816;2024-01-15T10:45:46;11.27;;;4.65;;
69260;SDS011;56378;52.404;20.816;2024-01-15T10:48:17;9.98;;;4.25;;
69260;SDS011;56378;52.404;20.816;2024-01-15T10:50:43;14.02;;;4.78;;
69260;SDS011;56378;52.404;20.816;2024-01-15T10:53:11;13.25;;;4.78;;
69260;SDS011;56378;52.404;20.816;2024-01-15T10:55:38;17.98;;;6.03;;
69260;SDS011;56378;52.404;20.816;2024-01-15T10:58:07;10.85;;;4.03;;
69260;SDS011;56378;52.404;20.816;2024-01-15T11:00:34;12.10;;;4.95;;
69260;SDS011;56378;52.404;20.816;2024-01-15T11:03:02;11.93;;;4.22;;
69260;SDS011;56378;52.404;20.816;2024-01-15T11:05:36;14.65;;;5.35;;
69260;SDS011;56378;52.404;20.816;2024-01-15T11:08:06;12.70;;;4.90;;
69260;SDS011;56378;52.404;20.816;2024-01-15T11:13:53;12.65;;;4.47;;
69260;SDS011;56378;52.404;20.816;2024-01-15T11:16:03;13.55;;;4.43;;
69260;SDS011;56378;52.404;20.816;2024-01-15T11:18:37;11.45;;;4.32;;
69260;SDS011;56378;52.404;20.816;2024-01-15T11:23:43;12.98;;;4.32;;
69260;SDS011;56378;52.404;20.816;2024-01-15T11:29:00;12.63;;;4.80;;
69260;SDS011;56378;52.404;20.816;2024-01-15T11:34:12;11.93;;;4.20;;
69260;SDS011;56378;52.404;20.816;2024-01-15T11:41:57;10.18;;;3.95;;
69260;SDS011;56378;52.404;20.816;2024-01-15T11:44:25;11.40;;;4.03;;
69260;SDS011;56378;52.404;20.816;2024-01-15T11:46:58;11.18;;;4.45;;
69260;SDS011;56378;52.404;20.816;2024-01-15T11:50:11;12.88;;;4.70;;
69260;SDS011;56378;52.404;20.816;2024-01-15T11:52:34;10.10;;;4.05;;
69260;SDS011;56378;52.404;20.816;2024-01-15T11:55:02;9.95;;;3.95;;
69260;SDS011;56378;52.404;20.816;2024-01-15T11:57:50;11.03;;;4.10;;
69260;SDS011;56378;52.404;20.816;2024-01-15T12:00:17;9.80;;;3.88;;
69260;SDS011;56378;52.404;20.816;2024-01-15T12:02:44;11.43;;;3.97;;
69260;SDS011;56378;52.404;20.816;2024-01-15T12:05:11;13.38;;;3.80;;
69260;SDS011;56378;52.404;20.816;2024-01-15T12:07:39;10.55;;;4.00;;
69260;SDS011;56378;52.404;20.816;2024-01-15T12:10:09;10.10;;;3.67;;
69260;SDS011;56378;52.404;20.816;2024-01-15T12:12:58;9.75;;;3.60;;
69260;SDS011;56378;52.404;20.816;2024-01-15T12:15:27;9.32;;;3.70;;
69260;SDS011;56378;52.404;20.816;2024-01-15T12:17:55;12.45;;;4.07;;
69260;SDS011;56378;52.404;20.816;2024-01-15T12:20:25;10.65;;;4.45;;
69260;SDS011;56378;52.404;20.816;2024-01-15T12:22:51;10.77;;;4.13;;
69260;SDS011;56378;52.404;20.816;2024-01-15T12:25:17;12.18;;;4.18;;
69260;SDS011;56378;52.404;20.816;2024-01-15T12:27:43;13.38;;;4.68;;
69260;SDS011;56378;52.404;20.816;2024-01-15T12:30:15;13.00;;;4.53;;
69260;SDS011;56378;52.404;20.816;2024-01-15T12:32:41;15.02;;;5.10;;
69260;SDS011;56378;52.404;20.816;2024-01-15T12:35:07;13.65;;;4.75;;
69260;SDS011;56378;52.404;20.816;2024-01-15T12:37:37;14.05;;;4.95;;
69260;SDS011;56378;52.404;20.816;2024-01-15T12:40:05;12.93;;;4.53;;
69260;SDS011;56378;52.404;20.816;2024-01-15T12:42:37;13.20;;;5.50;;
69260;SDS011;56378;52.404;20.816;2024-01-15T12:45:06;9.93;;;4.10;;
69260;SDS011;56378;52.404;20.816;2024-01-15T12:47:33;11.35;;;4.43;;
69260;SDS011;56378;52.404;20.816;2024-01-15T12:49:59;12.13;;;4.57;;
69260;SDS011;56378;52.404;20.816;2024-01-15T12:52:29;11.95;;;4.57;;
69260;SDS011;56378;52.404;20.816;2024-01-15T12:54:55;11.03;;;4.87;;
69260;SDS011;56378;52.404;20.816;2024-01-15T12:57:21;16.95;;;5.78;;
69260;SDS011;56378;52.404;20.816;2024-01-15T12:59:47;13.02;;;4.57;;
69260;SDS011;56378;52.404;20.816;2024-01-15T13:02:12;12.43;;;5.00;;
69260;SDS011;56378;52.404;20.816;2024-01-15T13:04:38;19.10;;;4.45;;
69260;SDS011;56378;52.404;20.816;2024-01-15T13:07:07;13.63;;;4.45;;
69260;SDS011;56378;52.404;20.816;2024-01-15T13:09:33;14.80;;;5.35;;
69260;SDS011;56378;52.404;20.816;2024-01-15T13:12:00;18.45;;;5.13;;
69260;SDS011;56378;52.404;20.816;2024-01-15T13:14:27;13.13;;;4.22;;
69260;SDS011;56378;52.404;20.816;2024-01-15T13:16:52;12.75;;;4.63;;
69260;SDS011;56378;52.404;20.816;2024-01-15T13:19:19;14.35;;;4.85;;
69260;SDS011;56378;52.404;20.816;2024-01-15T13:21:46;17.42;;;5.18;;
69260;SDS011;56378;52.404;20.816;2024-01-15T13:24:13;12.43;;;4.88;;
69260;SDS011;56378;52.404;20.816;2024-01-15T13:26:39;17.15;;;5.68;;
69260;SDS011;56378;52.404;20.816;2024-01-15T13:29:05;15.98;;;5.80;;
69260;SDS011;56378;52.404;20.816;2024-01-15T13:31:31;12.40;;;3.92;;
69260;SDS011;56378;52.404;20.816;2024-01-15T13:33:57;14.50;;;4.72;;
69260;SDS011;56378;52.404;20.816;2024-01-15T13:36:24;13.02;;;4.47;;
69260;SDS011;56378;52.404;20.816;2024-01-15T13:38:50;14.18;;;4.65;;
69260;SDS011;56378;52.404;20.816;2024-01-15T13:41:17;11.23;;;4.32;;
69260;SDS011;56378;52.404;20.816;2024-01-15T13:43:53;16.05;;;4.88;;
69260;SDS011;56378;52.404;20.816;2024-01-15T13:46:20;17.75;;;5.57;;
69260;SDS011;56378;52.404;20.816;2024-01-15T13:48:47;17.77;;;5.72;;
69260;SDS011;56378;52.404;20.816;2024-01-15T13:51:12;16.50;;;5.72;;
69260;SDS011;56378;52.404;20.816;2024-01-15T13:53:38;13.20;;;4.80;;
69260;SDS011;56378;52.404;20.816;2024-01-15T13:56:05;14.05;;;4.65;;
69260;SDS011;56378;52.404;20.816;2024-01-15T13:58:31;18.83;;;5.75;;
69260;SDS011;56378;52.404;20.816;2024-01-15T14:01:00;14.88;;;5.53;;
69260;SDS011;56378;52.404;20.816;2024-01-15T14:03:28;14.57;;;5.55;;
69260;SDS011;56378;52.404;20.816;2024-01-15T14:05:54;14.20;;;4.97;;
69260;SDS011;56378;52.404;20.816;2024-01-15T14:08:20;11.75;;;4.05;;
69260;SDS011;56378;52.404;20.816;2024-01-15T14:10:49;16.90;;;4.70;;
69260;SDS011;56378;52.404;20.816;2024-01-15T14:13:32;11.88;;;4.35;;
69260;SDS011;56378;52.404;20.816;2024-01-15T14:15:58;10.68;;;3.88;;
69260;SDS011;56378;52.404;20.816;2024-01-15T14:18:25;14.85;;;4.60;;
69260;SDS011;56378;52.404;20.816;2024-01-15T14:20:51;11.50;;;4.03;;
69260;SDS011;56378;52.404;20.816;2024-01-15T14:23:18;11.95;;;4.07;;
69260;SDS011;56378;52.404;20.816;2024-01-15T14:25:44;12.07;;;3.90;;
69260;SDS011;56378;52.404;20.816;2024-01-15T14:28:10;14.40;;;4.47;;
69260;SDS011;56378;52.404;20.816;2024-01-15T14:30:36;13.93;;;4.53;;
69260;SDS011;56378;52.404;20.816;2024-01-15T14:33:02;16.90;;;5.67;;
69260;SDS011;56378;52.404;20.816;2024-01-15T14:35:27;15.75;;;5.68;;